Terminal Aerodrome Forecast
Issued by NWS Wilmington, OH

Home | Current Version | Previous Version | Text Only | Print | Product List | Glossary On
Versions: 1 2 3 4 5 6 7 8 9 10 11 12 13 14 15 16 17
000
FTUS41 KILN 100857 AAA
TAFILN
TAF AMD
KILN 100857Z 1009/1106 24008KT P6SM -SN FEW023 OVC030
     FM101300 25008KT P6SM BKN080
     FM102300 00000KT P6SM BKN080=

USA.gov is the U.S. government's official web portal to all federal, state and local government web resources and services.